sensor_id;sensor_type;location;lat;lon;timestamp;pressure;altitude;pressure_sealevel;temperature;humidity
26531;BME280;14201;43.188;24.160;2024-03-02T00:00:36;99264.13;;;9.14;100.00
26531;BME280;14201;43.188;24.160;2024-03-02T00:03:02;99273.97;;;9.01;100.00
26531;BME280;14201;43.188;24.160;2024-03-02T00:05:27;99262.06;;;9.06;100.00
26531;BME280;14201;43.188;24.160;2024-03-02T00:07:54;99264.91;;;9.13;100.00
26531;BME280;14201;43.188;24.160;2024-03-02T00:10:22;99254.41;;;9.10;100.00
26531;BME280;14201;43.188;24.160;2024-03-02T00:12:54;99255.22;;;9.09;100.00
26531;BME280;14201;43.188;24.160;2024-03-02T00:17:55;99262.47;;;9.16;100.00
26531;BME280;14201;43.188;24.160;2024-03-02T00:20:21;99260.75;;;9.16;100.00
26531;BME280;14201;43.188;24.160;2024-03-02T00:22:47;99247.81;;;9.18;100.00
26531;BME280;14201;43.188;24.160;2024-03-02T00:25:12;99251.63;;;9.26;100.00
26531;BME280;14201;43.188;24.160;2024-03-02T00:27:38;99248.22;;;9.27;100.00
26531;BME280;14201;43.188;24.160;2024-03-02T00:32:52;99251.06;;;9.33;100.00
26531;BME280;14201;43.188;24.160;2024-03-02T00:35:18;99238.06;;;9.33;100.00
26531;BME280;14201;43.188;24.160;2024-03-02T00:37:45;99233.09;;;9.39;100.00
26531;BME280;14201;43.188;24.160;2024-03-02T00:40:10;99233.97;;;9.40;100.00
26531;BME280;14201;43.188;24.160;2024-03-02T00:42:38;99234.19;;;9.44;100.00
26531;BME280;14201;43.188;24.160;2024-03-02T00:45:07;99227.97;;;9.41;100.00
26531;BME280;14201;43.188;24.160;2024-03-02T00:47:37;99235.13;;;9.46;100.00
26531;BME280;14201;43.188;24.160;2024-03-02T00:50:02;99242.56;;;9.37;100.00
26531;BME280;14201;43.188;24.160;2024-03-02T00:52:28;99236.41;;;9.35;100.00
26531;BME280;14201;43.188;24.160;2024-03-02T00:54:56;99239.94;;;9.37;100.00
26531;BME280;14201;43.188;24.160;2024-03-02T00:57:22;99235.69;;;9.39;100.00
26531;BME280;14201;43.188;24.160;2024-03-02T00:59:51;99235.84;;;9.42;100.00
26531;BME280;14201;43.188;24.160;2024-03-02T01:02:16;99237.72;;;9.46;100.00
26531;BME280;14201;43.188;24.160;2024-03-02T01:04:41;99235.25;;;9.50;100.00
26531;BME280;14201;43.188;24.160;2024-03-02T01:07:07;99228.28;;;9.49;100.00
26531;BME280;14201;43.188;24.160;2024-03-02T01:09:32;99236.16;;;9.50;100.00
26531;BME280;14201;43.188;24.160;2024-03-02T01:11:58;99238.78;;;9.52;100.00
26531;BME280;14201;43.188;24.160;2024-03-02T01:14:23;99234.44;;;9.51;100.00
26531;BME280;14201;43.188;24.160;2024-03-02T01:16:49;99227.50;;;9.51;100.00
26531;BME280;14201;43.188;24.160;2024-03-02T01:19:14;99233.56;;;9.52;100.00
26531;BME280;14201;43.188;24.160;2024-03-02T01:21:40;99220.59;;;9.52;100.00
26531;BME280;14201;43.188;24.160;2024-03-02T01:24:06;99210.31;;;9.55;100.00
26531;BME280;14201;43.188;24.160;2024-03-02T01:26:31;99208.72;;;9.58;100.00
26531;BME280;14201;43.188;24.160;2024-03-02T01:28:56;99204.41;;;9.59;100.00
26531;BME280;14201;43.188;24.160;2024-03-02T01:31:22;99209.53;;;9.57;100.00
26531;BME280;14201;43.188;24.160;2024-03-02T01:33:47;99215.69;;;9.59;100.00
26531;BME280;14201;43.188;24.160;2024-03-02T01:36:13;99216.53;;;9.58;100.00
26531;BME280;14201;43.188;24.160;2024-03-02T01:38:38;99208.72;;;9.58;100.00
26531;BME280;14201;43.188;24.160;2024-03-02T01:41:04;99210.50;;;9.59;100.00
26531;BME280;14201;43.188;24.160;2024-03-02T01:43:29;99203.53;;;9.58;100.00
26531;BME280;14201;43.188;24.160;2024-03-02T01:45:54;99207.06;;;9.60;100.00
26531;BME280;14201;43.188;24.160;2024-03-02T01:48:21;99192.28;;;9.59;100.00
26531;BME280;14201;43.188;24.160;2024-03-02T01:50:47;99196.59;;;9.59;100.00
26531;BME280;14201;43.188;24.160;2024-03-02T01:53:12;99202.69;;;9.59;100.00
26531;BME280;14201;43.188;24.160;2024-03-02T01:55:38;99204.63;;;9.65;100.00
26531;BME280;14201;43.188;24.160;2024-03-02T01:58:03;99197.13;;;9.73;100.00
26531;BME280;14201;43.188;24.160;2024-03-02T02:00:29;99197.91;;;9.70;100.00
26531;BME280;14201;43.188;24.160;2024-03-02T02:02:55;99195.38;;;9.72;100.00
26531;BME280;14201;43.188;24.160;2024-03-02T02:05:20;99192.34;;;9.61;100.00
26531;BME280;14201;43.188;24.160;2024-03-02T02:07:46;99200.88;;;9.57;100.00
26531;BME280;14201;43.188;24.160;2024-03-02T02:10:12;99198.44;;;9.61;100.00
26531;BME280;14201;43.188;24.160;2024-03-02T02:12:37;99201.09;;;9.63;100.00
26531;BME280;14201;43.188;24.160;2024-03-02T02:15:03;99200.09;;;9.59;100.00
26531;BME280;14201;43.188;24.160;2024-03-02T02:17:29;99197.16;;;9.50;100.00
26531;BME280;14201;43.188;24.160;2024-03-02T02:19:54;99206.72;;;9.51;100.00
26531;BME280;14201;43.188;24.160;2024-03-02T02:22:19;99207.94;;;9.61;100.00
26531;BME280;14201;43.188;24.160;2024-03-02T02:24:45;99202.44;;;9.53;100.00
26531;BME280;14201;43.188;24.160;2024-03-02T02:27:10;99203.34;;;9.54;100.00
26531;BME280;14201;43.188;24.160;2024-03-02T02:29:37;99215.44;;;9.53;100.00
26531;BME280;14201;43.188;24.160;2024-03-02T02:32:03;99215.34;;;9.50;100.00
26531;BME280;14201;43.188;24.160;2024-03-02T02:34:28;99207.59;;;9.52;100.00
26531;BME280;14201;43.188;24.160;2024-03-02T02:36:54;99205.06;;;9.53;100.00
26531;BME280;14201;43.188;24.160;2024-03-02T02:39:20;99206.84;;;9.54;100.00
26531;BME280;14201;43.188;24.160;2024-03-02T02:41:46;99202.53;;;9.55;100.00
26531;BME280;14201;43.188;24.160;2024-03-02T02:44:12;99201.72;;;9.56;100.00
26531;BME280;14201;43.188;24.160;2024-03-02T02:46:38;99199.16;;;9.57;100.00
26531;BME280;14201;43.188;24.160;2024-03-02T02:49:04;99194.25;;;9.65;100.00
26531;BME280;14201;43.188;24.160;2024-03-02T02:51:29;99210.56;;;9.61;100.00
26531;BME280;14201;43.188;24.160;2024-03-02T02:53:54;99205.28;;;9.59;100.00
26531;BME280;14201;43.188;24.160;2024-03-02T02:56:20;99203.91;;;9.68;100.00
26531;BME280;14201;43.188;24.160;2024-03-02T02:58:45;99208.19;;;9.67;100.00
26531;BME280;14201;43.188;24.160;2024-03-02T03:01:11;99208.84;;;9.61;100.00
26531;BME280;14201;43.188;24.160;2024-03-02T03:03:36;99205.41;;;9.62;100.00
26531;BME280;14201;43.188;24.160;2024-03-02T03:06:02;99211.25;;;9.57;100.00
26531;BME280;14201;43.188;24.160;2024-03-02T03:08:27;99216.22;;;9.51;100.00
26531;BME280;14201;43.188;24.160;2024-03-02T03:10:53;99216.31;;;9.54;100.00
26531;BME280;14201;43.188;24.160;2024-03-02T03:13:18;99220.59;;;9.52;100.00
26531;BME280;14201;43.188;24.160;2024-03-02T03:15:44;99216.31;;;9.54;100.00
26531;BME280;14201;43.188;24.160;2024-03-02T03:18:09;99225.75;;;9.50;100.00
26531;BME280;14201;43.188;24.160;2024-03-02T03:20:35;99222.25;;;9.50;100.00
26531;BME280;14201;43.188;24.160;2024-03-02T03:23:01;99219.78;;;9.53;100.00
26531;BME280;14201;43.188;24.160;2024-03-02T03:25:27;99227.50;;;9.51;100.00
26531;BME280;14201;43.188;24.160;2024-03-02T03:27:52;99224.84;;;9.50;100.00
26531;BME280;14201;43.188;24.160;2024-03-02T03:30:17;99217.16;;;9.53;100.00
26531;BME280;14201;43.188;24.160;2024-03-02T03:32:43;99226.63;;;9.51;100.00
26531;BME280;14201;43.188;24.160;2024-03-02T03:35:08;99218.81;;;9.51;100.00
26531;BME280;14201;43.188;24.160;2024-03-02T03:37:34;99217.88;;;9.49;100.00
26531;BME280;14201;43.188;24.160;2024-03-02T03:39:59;99210.19;;;9.52;100.00
26531;BME280;14201;43.188;24.160;2024-03-02T03:42:26;99216.09;;;9.48;100.00
26531;BME280;14201;43.188;24.160;2024-03-02T03:44:51;99219.41;;;9.43;100.00
26531;BME280;14201;43.188;24.160;2024-03-02T03:47:19;99217.75;;;9.45;100.00
26531;BME280;14201;43.188;24.160;2024-03-02T03:49:45;99214.44;;;9.50;100.00
26531;BME280;14201;43.188;24.160;2024-03-02T03:52:10;99219.78;;;9.53;100.00
26531;BME280;14201;43.188;24.160;2024-03-02T03:54:36;99214.19;;;9.43;100.00
26531;BME280;14201;43.188;24.160;2024-03-02T03:57:03;99207.28;;;9.44;100.00
26531;BME280;14201;43.188;24.160;2024-03-02T03:59:29;99217.44;;;9.38;100.00
26531;BME280;14201;43.188;24.160;2024-03-02T04:01:54;99215.06;;;9.44;100.00
26531;BME280;14201;43.188;24.160;2024-03-02T04:04:19;99208.91;;;9.40;100.00
26531;BME280;14201;43.188;24.160;2024-03-02T04:06:48;99207.25;;;9.42;100.00
26531;BME280;14201;43.188;24.160;2024-03-02T04:09:13;99209.25;;;9.50;100.00
26531;BME280;14201;43.188;24.160;2024-03-02T04:11:38;99208.59;;;9.55;100.00
26531;BME280;14201;43.188;24.160;2024-03-02T04:14:04;99199.75;;;9.50;100.00
26531;BME280;14201;43.188;24.160;2024-03-02T04:16:31;99203.06;;;9.46;100.00
26531;BME280;14201;43.188;24.160;2024-03-02T04:18:56;99211.75;;;9.46;100.00
26531;BME280;14201;43.188;24.160;2024-03-02T04:21:22;99215.44;;;9.53;100.00
26531;BME280;14201;43.188;24.160;2024-03-02T04:23:47;99209.00;;;9.43;100.00
26531;BME280;14201;43.188;24.160;2024-03-02T04:26:13;99214.19;;;9.43;100.00
26531;BME280;14201;43.188;24.160;2024-03-02T04:28:40;99213.47;;;9.46;100.00
26531;BME280;14201;43.188;24.160;2024-03-02T04:31:05;99207.34;;;9.45;100.00
26531;BME280;14201;43.188;24.160;2024-03-02T04:33:30;99222.06;;;9.45;100.00
26531;BME280;14201;43.188;24.160;2024-03-02T04:35:56;99225.53;;;9.45;100.00
26531;BME280;14201;43.188;24.160;2024-03-02T04:38:22;99222.13;;;9.46;100.00
26531;BME280;14201;43.188;24.160;2024-03-02T04:40:48;99229.78;;;9.43;100.00
26531;BME280;14201;43.188;24.160;2024-03-02T04:43:13;99234.28;;;9.48;100.00
26531;BME280;14201;43.188;24.160;2024-03-02T04:45:41;99238.03;;;9.54;100.00
26531;BME280;14201;43.188;24.160;2024-03-02T04:48:07;99241.59;;;9.56;100.00
26531;BME280;14201;43.188;24.160;2024-03-02T04:50:33;99242.06;;;9.69;100.00
26531;BME280;14201;43.188;24.160;2024-03-02T04:52:58;99241.19;;;9.68;100.00
26531;BME280;14201;43.188;24.160;2024-03-02T04:55:23;99238.34;;;9.62;100.00
26531;BME280;14201;43.188;24.160;2024-03-02T04:57:52;99231.69;;;9.48;100.00
26531;BME280;14201;43.188;24.160;2024-03-02T05:00:20;99234.94;;;9.42;100.00
26531;BME280;14201;43.188;24.160;2024-03-02T05:02:45;99238.44;;;9.42;100.00
26531;BME280;14201;43.188;24.160;2024-03-02T05:05:10;99233.34;;;9.45;100.00
26531;BME280;14201;43.188;24.160;2024-03-02T05:07:36;99234.19;;;9.44;100.00
26531;BME280;14201;43.188;24.160;2024-03-02T05:10:01;99239.31;;;9.43;100.00
26531;BME280;14201;43.188;24.160;2024-03-02T05:12:26;99245.59;;;9.48;100.00
26531;BME280;14201;43.188;24.160;2024-03-02T05:15:21;99244.75;;;9.49;100.00
26531;BME280;14201;43.188;24.160;2024-03-02T05:17:49;99247.50;;;9.52;100.00
26531;BME280;14201;43.188;24.160;2024-03-02T05:20:15;99245.63;;;9.50;100.00
26531;BME280;14201;43.188;24.160;2024-03-02T05:22:40;99250.97;;;9.53;100.00
26531;BME280;14201;43.188;24.160;2024-03-02T05:25:06;99257.13;;;9.55;100.00
26531;BME280;14201;43.188;24.160;2024-03-02T05:27:32;99255.91;;;9.68;100.00
26531;BME280;14201;43.188;24.160;2024-03-02T05:29:58;99257.19;;;9.56;100.00
26531;BME280;14201;43.188;24.160;2024-03-02T05:32:23;99255.75;;;9.64;100.00
26531;BME280;14201;43.188;24.160;2024-03-02T05:34:49;99266.81;;;9.59;100.00
26531;BME280;14201;43.188;24.160;2024-03-02T05:37:16;99272.78;;;9.35;100.00
26531;BME280;14201;43.188;24.160;2024-03-02T05:39:41;99269.88;;;9.49;100.00
26531;BME280;14201;43.188;24.160;2024-03-02T05:42:08;99269.72;;;9.45;100.00
26531;BME280;14201;43.188;24.160;2024-03-02T05:44:34;99282.66;;;9.44;100.00
26531;BME280;14201;43.188;24.160;2024-03-02T05:47:00;99288.94;;;9.28;100.00
26531;BME280;14201;43.188;24.160;2024-03-02T05:49:25;99282.06;;;9.29;100.00
26531;BME280;14201;43.188;24.160;2024-03-02T05:51:50;99292.47;;;9.29;100.00
26531;BME280;14201;43.188;24.160;2024-03-02T05:54:16;99282.09;;;9.30;100.00
26531;BME280;14201;43.188;24.160;2024-03-02T05:56:41;99290.91;;;9.34;100.00
26531;BME280;14201;43.188;24.160;2024-03-02T05:59:07;99292.31;;;9.46;100.00
26531;BME280;14201;43.188;24.160;2024-03-02T06:01:38;99289.41;;;9.39;100.00
26531;BME280;14201;43.188;24.160;2024-03-02T06:04:03;99288.38;;;9.35;100.00
26531;BME280;14201;43.188;24.160;2024-03-02T06:06:29;99296.13;;;9.34;100.00
26531;BME280;14201;43.188;24.160;2024-03-02T06:08:54;99279.75;;;9.36;100.00
26531;BME280;14201;43.188;24.160;2024-03-02T06:11:20;99284.13;;;9.37;100.00
26531;BME280;14201;43.188;24.160;2024-03-02T06:13:45;99287.81;;;9.42;100.00
26531;BME280;14201;43.188;24.160;2024-03-02T06:16:11;99281.91;;;9.46;100.00
26531;BME280;14201;43.188;24.160;2024-03-02T06:18:37;99292.69;;;9.56;100.00
26531;BME280;14201;43.188;24.160;2024-03-02T06:21:02;99283.91;;;9.54;100.00
26531;BME280;14201;43.188;24.160;2024-03-02T06:23:28;99292.09;;;9.63;100.00
26531;BME280;14201;43.188;24.160;2024-03-02T06:25:53;99296.25;;;9.58;100.00
26531;BME280;14201;43.188;24.160;2024-03-02T06:28:19;99294.78;;;9.64;100.00
26531;BME280;14201;43.188;24.160;2024-03-02T06:30:44;99290.91;;;9.55;100.00
26531;BME280;14201;43.188;24.160;2024-03-02T06:33:10;99298.88;;;9.59;100.00
26531;BME280;14201;43.188;24.160;2024-03-02T06:35:36;99302.97;;;9.53;100.00
26531;BME280;14201;43.188;24.160;2024-03-02T06:38:01;99297.44;;;9.66;100.00
26531;BME280;14201;43.188;24.160;2024-03-02T06:40:27;99305.09;;;9.63;100.00
26531;BME280;14201;43.188;24.160;2024-03-02T06:42:52;99306.88;;;9.64;100.00
26531;BME280;14201;43.188;24.160;2024-03-02T06:45:18;99303.28;;;9.60;100.00
26531;BME280;14201;43.188;24.160;2024-03-02T06:47:43;99297.63;;;9.50;100.00
26531;BME280;14201;43.188;24.160;2024-03-02T06:50:09;99300.34;;;9.53;100.00
26531;BME280;14201;43.188;24.160;2024-03-02T06:52:34;99294.31;;;9.54;100.00
26531;BME280;14201;43.188;24.160;2024-03-02T06:55:00;99300.53;;;9.57;100.00
26531;BME280;14201;43.188;24.160;2024-03-02T06:57:25;99294.59;;;9.60;100.00
26531;BME280;14201;43.188;24.160;2024-03-02T06:59:51;99302.09;;;9.75;100.00
26531;BME280;14201;43.188;24.160;2024-03-02T07:02:19;99291.66;;;9.73;100.00
26531;BME280;14201;43.188;24.160;2024-03-02T07:04:45;99304.59;;;9.72;100.00
26531;BME280;14201;43.188;24.160;2024-03-02T07:07:10;99296.97;;;9.76;100.00
26531;BME280;14201;43.188;24.160;2024-03-02T07:09:36;99302.38;;;9.81;100.00
26531;BME280;14201;43.188;24.160;2024-03-02T07:12:01;99303.00;;;9.75;100.00
26531;BME280;14201;43.188;24.160;2024-03-02T07:14:27;99306.66;;;9.80;100.00
26531;BME280;14201;43.188;24.160;2024-03-02T07:17:12;99308.06;;;9.72;100.00
26531;BME280;14201;43.188;24.160;2024-03-02T07:19:38;99298.22;;;9.42;100.00
26531;BME280;14201;43.188;24.160;2024-03-02T07:22:07;99297.00;;;9.34;100.00
26531;BME280;14201;43.188;24.160;2024-03-02T07:24:39;99293.44;;;9.32;100.00
26531;BME280;14201;43.188;24.160;2024-03-02T07:27:06;99293.03;;;9.42;100.00
26531;BME280;14201;43.188;24.160;2024-03-02T07:29:31;99289.00;;;9.51;100.00
26531;BME280;14201;43.188;24.160;2024-03-02T07:31:57;99285.56;;;9.52;100.00
26531;BME280;14201;43.188;24.160;2024-03-02T07:34:22;99300.28;;;9.72;100.00
26531;BME280;14201;43.188;24.160;2024-03-02T07:36:48;99317.28;;;9.85;100.00
26531;BME280;14201;43.188;24.160;2024-03-02T07:39:13;99308.13;;;9.95;100.00
26531;BME280;14201;43.188;24.160;2024-03-02T07:41:39;99305.84;;;9.81;100.00
26531;BME280;14201;43.188;24.160;2024-03-02T07:44:04;99310.91;;;9.56;100.00
26531;BME280;14201;43.188;24.160;2024-03-02T07:46:30;99308.72;;;9.66;100.00
26531;BME280;14201;43.188;24.160;2024-03-02T07:48:55;99311.25;;;9.65;100.00
26531;BME280;14201;43.188;24.160;2024-03-02T07:51:21;99311.16;;;9.84;100.00
26531;BME280;14201;43.188;24.160;2024-03-02T07:53:46;99313.81;;;9.86;100.00
26531;BME280;14201;43.188;24.160;2024-03-02T07:56:11;99319.25;;;9.92;100.00
26531;BME280;14201;43.188;24.160;2024-03-02T07:58:37;99316.09;;;9.99;100.00
26531;BME280;14201;43.188;24.160;2024-03-02T08:01:02;99317.97;;;10.03;100.00
26531;BME280;14201;43.188;24.160;2024-03-02T08:03:28;99311.13;;;10.05;100.00
26531;BME280;14201;43.188;24.160;2024-03-02T08:05:54;99316.53;;;10.10;100.00
26531;BME280;14201;43.188;24.160;2024-03-02T08:08:19;99316.53;;;10.10;100.00
26531;BME280;14201;43.188;24.160;2024-03-02T08:10:45;99324.44;;;10.13;100.00
26531;BME280;14201;43.188;24.160;2024-03-02T08:13:10;99318.63;;;10.20;100.00
26531;BME280;14201;43.188;24.160;2024-03-02T08:15:36;99319.81;;;10.29;100.00
26531;BME280;14201;43.188;24.160;2024-03-02T08:18:01;99317.94;;;10.24;100.00
26531;BME280;14201;43.188;24.160;2024-03-02T08:20:26;99317.22;;;10.29;100.00
26531;BME280;14201;43.188;24.160;2024-03-02T08:22:52;99320.53;;;10.24;100.00
26531;BME280;14201;43.188;24.160;2024-03-02T08:25:20;99328.34;;;10.24;100.00
26531;BME280;14201;43.188;24.160;2024-03-02T08:27:45;99333.38;;;10.20;100.00
26531;BME280;14201;43.188;24.160;2024-03-02T08:30:11;99342.13;;;10.22;100.00
26531;BME280;14201;43.188;24.160;2024-03-02T08:32:37;99346.63;;;10.26;100.00
26531;BME280;14201;43.188;24.160;2024-03-02T08:35:02;99350.59;;;10.16;100.00
26531;BME280;14201;43.188;24.160;2024-03-02T08:37:28;99344.53;;;10.17;100.00
26531;BME280;14201;43.188;24.160;2024-03-02T08:39:53;99336.78;;;10.19;100.00
26531;BME280;14201;43.188;24.160;2024-03-02T08:42:19;99339.69;;;10.27;100.00
26531;BME280;14201;43.188;24.160;2024-03-02T08:44:44;99339.00;;;10.31;100.00
26531;BME280;14201;43.188;24.160;2024-03-02T08:47:10;99346.31;;;10.18;100.00
26531;BME280;14201;43.188;24.160;2024-03-02T08:49:35;99332.53;;;10.21;100.00
26531;BME280;14201;43.188;24.160;2024-03-02T08:52:01;99335.91;;;10.18;100.00
26531;BME280;14201;43.188;24.160;2024-03-02T08:54:26;99336.63;;;10.14;100.00
26531;BME280;14201;43.188;24.160;2024-03-02T08:56:53;99346.25;;;10.17;100.00
26531;BME280;14201;43.188;24.160;2024-03-02T08:59:18;99351.47;;;10.17;100.00
26531;BME280;14201;43.188;24.160;2024-03-02T09:01:44;99353.25;;;10.18;100.00
26531;BME280;14201;43.188;24.160;2024-03-02T09:04:10;99353.28;;;10.19;100.00
26531;BME280;14201;43.188;24.160;2024-03-02T09:06:35;99355.88;;;10.19;100.00
26531;BME280;14201;43.188;24.160;2024-03-02T09:09:01;99352.47;;;10.20;100.00
26531;BME280;14201;43.188;24.160;2024-03-02T09:11:26;99362.75;;;10.17;100.00
26531;BME280;14201;43.188;24.160;2024-03-02T09:13:52;99355.78;;;10.16;100.00
26531;BME280;14201;43.188;24.160;2024-03-02T09:16:18;99355.88;;;10.19;100.00
26531;BME280;14201;43.188;24.160;2024-03-02T09:18:44;99349.88;;;10.20;100.00
26531;BME280;14201;43.188;24.160;2024-03-02T09:21:10;99352.78;;;10.28;100.00
26531;BME280;14201;43.188;24.160;2024-03-02T09:23:35;99337.22;;;10.30;100.00
26531;BME280;14201;43.188;24.160;2024-03-02T09:26:01;99341.41;;;10.26;100.00
26531;BME280;14201;43.188;24.160;2024-03-02T09:28:28;99342.28;;;10.27;100.00
26531;BME280;14201;43.188;24.160;2024-03-02T09:30:53;99345.38;;;10.39;100.00
26531;BME280;14201;43.188;24.160;2024-03-02T09:33:19;99340.38;;;10.43;100.00
26531;BME280;14201;43.188;24.160;2024-03-02T09:35:44;99351.59;;;10.42;100.00
26531;BME280;14201;43.188;24.160;2024-03-02T09:38:10;99344.09;;;10.50;100.00
26531;BME280;14201;43.188;24.160;2024-03-02T09:40:35;99356.50;;;10.35;100.00
26531;BME280;14201;43.188;24.160;2024-03-02T09:43:01;99340.53;;;10.48;100.00
26531;BME280;14201;43.188;24.160;2024-03-02T09:45:28;99345.09;;;10.31;100.00
26531;BME280;14201;43.188;24.160;2024-03-02T09:47:55;99339.25;;;10.37;100.00
26531;BME280;14201;43.188;24.160;2024-03-02T09:50:20;99334.00;;;10.35;100.00
26531;BME280;14201;43.188;24.160;2024-03-02T09:52:48;99331.63;;;10.41;100.00
26531;BME280;14201;43.188;24.160;2024-03-02T09:55:15;99335.25;;;10.47;100.00
26531;BME280;14201;43.188;24.160;2024-03-02T09:57:41;99330.53;;;10.59;100.00
26531;BME280;14201;43.188;24.160;2024-03-02T10:00:07;99324.34;;;10.33;100.00
26531;BME280;14201;43.188;24.160;2024-03-02T10:02:33;99321.22;;;10.41;100.00
26531;BME280;14201;43.188;24.160;2024-03-02T10:04:59;99336.28;;;10.50;100.00
26531;BME280;14201;43.188;24.160;2024-03-02T10:07:24;99319.13;;;10.55;100.00
26531;BME280;14201;43.188;24.160;2024-03-02T10:09:49;99322.78;;;10.60;100.00
26531;BME280;14201;43.188;24.160;2024-03-02T10:12:17;99324.16;;;10.51;100.00
26531;BME280;14201;43.188;24.160;2024-03-02T10:14:43;99324.09;;;10.49;100.00
26531;BME280;14201;43.188;24.160;2024-03-02T10:17:09;99320.09;;;10.14;100.00
26531;BME280;14201;43.188;24.160;2024-03-02T10:19:35;99319.19;;;10.34;100.00
26531;BME280;14201;43.188;24.160;2024-03-02T10:22:05;99328.53;;;10.52;100.00
26531;BME280;14201;43.188;24.160;2024-03-02T10:24:40;99341.03;;;10.62;100.00
26531;BME280;14201;43.188;24.160;2024-03-02T10:27:09;99339.00;;;10.53;100.00
26531;BME280;14201;43.188;24.160;2024-03-02T10:29:38;99343.94;;;10.70;100.00
26531;BME280;14201;43.188;24.160;2024-03-02T10:32:05;99338.00;;;10.74;100.00
26531;BME280;14201;43.188;24.160;2024-03-02T10:34:31;99325.09;;;10.77;100.00
26531;BME280;14201;43.188;24.160;2024-03-02T10:36:57;99327.88;;;10.81;100.00
26531;BME280;14201;43.188;24.160;2024-03-02T10:39:23;99325.38;;;10.84;100.00
26531;BME280;14201;43.188;24.160;2024-03-02T10:41:49;99331.00;;;10.95;100.00
26531;BME280;14201;43.188;24.160;2024-03-02T10:44:14;99321.66;;;11.02;99.75
26531;BME280;14201;43.188;24.160;2024-03-02T10:46:41;99326.72;;;10.97;99.93
26531;BME280;14201;43.188;24.160;2024-03-02T10:49:09;99327.53;;;10.96;100.00
26531;BME280;14201;43.188;24.160;2024-03-02T10:51:34;99321.72;;;11.03;100.00
26531;BME280;14201;43.188;24.160;2024-03-02T10:54:02;99320.94;;;11.06;100.00
26531;BME280;14201;43.188;24.160;2024-03-02T10:56:28;99316.56;;;11.05;100.00
26531;BME280;14201;43.188;24.160;2024-03-02T10:59:36;99315.56;;;11.01;99.11
26531;BME280;14201;43.188;24.160;2024-03-02T11:01:43;99321.09;;;10.87;98.80
26531;BME280;14201;43.188;24.160;2024-03-02T11:04:12;99323.06;;;10.92;100.00
26531;BME280;14201;43.188;24.160;2024-03-02T11:06:38;99325.66;;;10.92;100.00
26531;BME280;14201;43.188;24.160;2024-03-02T11:09:06;99324.78;;;10.92;99.36
26531;BME280;14201;43.188;24.160;2024-03-02T11:11:40;99326.53;;;10.93;100.00
26531;BME280;14201;43.188;24.160;2024-03-02T11:14:09;99329.53;;;11.03;99.92
26531;BME280;14201;43.188;24.160;2024-03-02T11:16:37;99331.81;;;10.94;99.63
26531;BME280;14201;43.188;24.160;2024-03-02T11:19:10;99320.56;;;10.95;99.77
26531;BME280;14201;43.188;24.160;2024-03-02T11:21:36;99318.84;;;10.96;99.44
26531;BME280;14201;43.188;24.160;2024-03-02T11:26:46;99319.78;;;10.98;99.53
26531;BME280;14201;43.188;24.160;2024-03-02T11:29:36;99321.53;;;10.99;100.00
26531;BME280;14201;43.188;24.160;2024-03-02T11:31:57;99319.16;;;11.05;100.00
26531;BME280;14201;43.188;24.160;2024-03-02T11:34:34;99321.00;;;11.08;100.00
26531;BME280;14201;43.188;24.160;2024-03-02T11:37:02;99332.72;;;11.20;100.00
26531;BME280;14201;43.188;24.160;2024-03-02T11:39:28;99326.06;;;11.29;100.00
26531;BME280;14201;43.188;24.160;2024-03-02T11:41:54;99323.59;;;11.33;100.00
26531;BME280;14201;43.188;24.160;2024-03-02T11:44:20;99327.88;;;11.31;100.00
26531;BME280;14201;43.188;24.160;2024-03-02T11:46:57;99331.34;;;11.30;99.96
26531;BME280;14201;43.188;24.160;2024-03-02T11:49:36;99325.06;;;11.25;97.73
26531;BME280;14201;43.188;24.160;2024-03-02T11:52:06;99328.50;;;11.24;98.68
26531;BME280;14201;43.188;24.160;2024-03-02T11:54:32;99332.94;;;11.27;100.00
26531;BME280;14201;43.188;24.160;2024-03-02T11:57:04;99322.94;;;11.39;100.00
26531;BME280;14201;43.188;24.160;2024-03-02T11:59:30;99327.13;;;11.35;100.00
26531;BME280;14201;43.188;24.160;2024-03-02T12:01:56;99330.19;;;11.48;100.00
26531;BME280;14201;43.188;24.160;2024-03-02T12:04:21;99323.25;;;11.48;99.59
26531;BME280;14201;43.188;24.160;2024-03-02T12:06:53;99325.94;;;11.51;99.32
26531;BME280;14201;43.188;24.160;2024-03-02T12:09:20;99321.94;;;11.35;99.41
26531;BME280;14201;43.188;24.160;2024-03-02T12:11:46;99325.06;;;11.51;99.15
26531;BME280;14201;43.188;24.160;2024-03-02T12:14:11;99326.16;;;11.57;99.28
26531;BME280;14201;43.188;24.160;2024-03-02T12:16:38;99326.84;;;11.52;96.04
26531;BME280;14201;43.188;24.160;2024-03-02T12:19:05;99322.97;;;11.40;96.33
26531;BME280;14201;43.188;24.160;2024-03-02T12:21:31;99318.38;;;11.33;96.97
26531;BME280;14201;43.188;24.160;2024-03-02T12:23:56;99319.53;;;11.41;97.29
26531;BME280;14201;43.188;24.160;2024-03-02T12:26:22;99324.06;;;11.47;98.63
26531;BME280;14201;43.188;24.160;2024-03-02T12:28:47;99321.59;;;11.26;98.76
26531;BME280;14201;43.188;24.160;2024-03-02T12:31:13;99311.72;;;11.16;98.36
26531;BME280;14201;43.188;24.160;2024-03-02T12:33:38;99311.75;;;11.17;98.78
26531;BME280;14201;43.188;24.160;2024-03-02T12:36:05;99308.16;;;11.14;99.02
26531;BME280;14201;43.188;24.160;2024-03-02T12:38:30;99307.34;;;11.15;99.75
26531;BME280;14201;43.188;24.160;2024-03-02T12:40:55;99312.28;;;11.07;99.30
26531;BME280;14201;43.188;24.160;2024-03-02T12:43:21;99302.84;;;11.11;98.55
26531;BME280;14201;43.188;24.160;2024-03-02T12:45:48;99303.53;;;11.05;100.00
26531;BME280;14201;43.188;24.160;2024-03-02T12:48:14;99305.69;;;11.17;100.00
26531;BME280;14201;43.188;24.160;2024-03-02T12:50:39;99303.06;;;11.17;98.43